Valdosta Regional Airport Valdosta US
ICAO: KVLD
IATA: VLD
Category: Medium
Scheduled Services: Yes

Elevation: 203 ft
TransAlt. 18000 ft.

Airport Communications:
APP/DEP:119.525
ASOS:126.225
CTAF:120.9
GND:121.7
MACON RDO:122.2
TWR:120.9
UNICOM:122.95

KVLD Zoom In..

If you have problems with the map follow the link
https://www.worldairports.se/pages/airport.php?
ICAO=KVLD

Runways:

(A) RW 04 length 5598 ft width 100 ft
---- / hdg 41

(B) RW 13 length 3636 ft width 75 ft
---- / hdg 131

(C) RW 17 length 8002 ft width 150 ft
---- / hdg 176

(D) RW 22 length 5598 ft width 100 ft
---- / hdg 221

(E) RW 31 length 3636 ft width 75 ft
---- / hdg 311

(F) RW 35 length 8002 ft width 150 ft
ILS 110.90 / hdg 356

Location; KVLD
Day. 12 / Time. 22.53 Zulu
* Altimeter: 30.27
* Temperature: 13° c. 55.4°f.
* Wind from: 060° Speed 07 kn.
Dewpoint: 09° c.
Visibility: 10 Statute Miles.
Clouds: Overcast 1500 ft.

KVLD 122253Z 06007KT 10SM OVC015 13/09 A3027 RMK AO2 RAE15 SLP260 P0000 T01330089


Wind From 060°
Speed 07 kn.

 
 
jpsmedia worldairports.se 2019   terms of use